createdAt,value
2023-02-19T00:01:54.276Z,2.53
2023-02-19T00:04:23.963Z,2.40
2023-02-19T00:06:52.773Z,2.63
2023-02-19T00:09:21.711Z,2.58
2023-02-19T00:11:50.472Z,2.42
2023-02-19T00:14:20.671Z,2.13
2023-02-19T00:16:49.939Z,2.10
2023-02-19T00:19:20.221Z,2.40
2023-02-19T00:21:51.973Z,2.20
2023-02-19T00:24:20.781Z,2.08
2023-02-19T00:26:49.807Z,2.00
2023-02-19T00:29:20.202Z,2.05
2023-02-19T00:31:49.081Z,1.80
2023-02-19T00:34:17.736Z,2.50
2023-02-19T00:36:45.858Z,2.10
2023-02-19T00:39:18.970Z,2.00
2023-02-19T00:41:47.241Z,1.98
2023-02-19T00:44:16.417Z,2.38
2023-02-19T00:46:46.806Z,2.05
2023-02-19T00:49:18.537Z,2.22
2023-02-19T00:51:47.678Z,1.95
2023-02-19T00:54:17.558Z,2.55
2023-02-19T00:56:46.290Z,2.60
2023-02-19T00:59:14.621Z,2.13
2023-02-19T01:01:45.059Z,2.45
2023-02-19T01:04:13.455Z,2.50
2023-02-19T01:06:42.345Z,2.33
2023-02-19T01:09:10.507Z,2.70
2023-02-19T01:11:40.532Z,3.03
2023-02-19T01:14:09.111Z,3.03
2023-02-19T01:16:37.690Z,2.40
2023-02-19T01:19:06.365Z,2.90
2023-02-19T01:21:34.515Z,2.85
2023-02-19T01:24:03.157Z,2.67
2023-02-19T01:26:32.870Z,2.65
2023-02-19T01:29:03.870Z,3.50
2023-02-19T01:31:32.888Z,2.97
2023-02-19T01:34:03.153Z,3.20
2023-02-19T01:36:34.411Z,3.33
2023-02-19T01:39:04.466Z,3.00
2023-02-19T01:41:35.807Z,3.17
2023-02-19T01:44:08.005Z,3.00
2023-02-19T01:46:37.789Z,2.90
2023-02-19T01:49:09.846Z,2.40
2023-02-19T01:51:43.156Z,2.72
2023-02-19T01:54:14.603Z,2.90
2023-02-19T01:56:44.271Z,2.55
2023-02-19T01:59:14.120Z,2.60
2023-02-19T02:01:43.237Z,2.50
2023-02-19T02:04:13.054Z,2.50
2023-02-19T02:06:46.290Z,2.30
2023-02-19T02:09:32.097Z,2.53
2023-02-19T02:12:00.628Z,2.30
2023-02-19T02:14:37.852Z,2.80
2023-02-19T02:17:15.169Z,2.42
2023-02-19T02:20:16.381Z,2.40
2023-02-19T02:22:50.882Z,2.10
2023-02-19T02:25:54.258Z,2.10
2023-02-19T02:28:37.758Z,2.25
2023-02-19T02:31:11.015Z,2.05
2023-02-19T02:33:44.076Z,2.10
2023-02-19T02:36:15.968Z,2.40
2023-02-19T02:38:46.943Z,2.50
2023-02-19T02:41:17.002Z,2.38
2023-02-19T02:43:45.605Z,2.47
2023-02-19T02:46:20.180Z,2.08
2023-02-19T02:48:54.316Z,2.28
2023-02-19T02:51:27.095Z,2.17
2023-02-19T02:54:18.640Z,2.30
2023-02-19T02:56:49.327Z,2.33
2023-02-19T02:59:21.439Z,2.30
2023-02-19T03:02:14.166Z,2.47
2023-02-19T03:05:11.813Z,2.08
2023-02-19T03:07:45.712Z,2.20
2023-02-19T03:10:17.672Z,2.10
2023-02-19T03:13:04.701Z,1.85
2023-02-19T03:15:55.980Z,2.20
2023-02-19T03:18:46.614Z,1.85
2023-02-19T03:21:18.028Z,1.98
2023-02-19T03:24:06.426Z,2.20
2023-02-19T03:26:37.172Z,2.25
2023-02-19T03:29:26.151Z,2.30
2023-02-19T03:31:58.716Z,2.17
2023-02-19T03:34:33.741Z,2.28
2023-02-19T03:37:10.292Z,2.10
2023-02-19T03:39:44.565Z,2.20
2023-02-19T03:42:22.772Z,2.00
2023-02-19T03:45:02.373Z,2.05
2023-02-19T03:47:34.061Z,2.00
2023-02-19T03:50:11.496Z,2.15
2023-02-19T03:52:43.238Z,2.20
2023-02-19T03:55:15.687Z,2.10
2023-02-19T03:57:51.386Z,2.22
2023-02-19T04:00:24.428Z,1.92
2023-02-19T04:02:58.872Z,2.40
2023-02-19T04:05:31.807Z,2.15
2023-02-19T04:08:03.955Z,2.00
2023-02-19T04:10:33.508Z,2.53
2023-02-19T04:13:09.369Z,2.60
2023-02-19T04:15:41.260Z,1.80
2023-02-19T04:18:14.191Z,2.20
2023-02-19T04:20:45.634Z,2.10
2023-02-19T04:23:15.595Z,2.08
2023-02-19T04:25:46.772Z,2.40
2023-02-19T04:28:17.020Z,2.30
2023-02-19T04:30:45.538Z,2.30
2023-02-19T04:33:14.137Z,2.22
2023-02-19T04:35:44.126Z,2.23
2023-02-19T04:38:14.273Z,2.30
2023-02-19T04:40:42.368Z,2.47
2023-02-19T04:43:11.000Z,2.10
2023-02-19T04:45:39.665Z,2.27
2023-02-19T04:48:07.767Z,1.80
2023-02-19T04:50:36.331Z,2.03
2023-02-19T04:53:05.774Z,2.07
2023-02-19T04:55:37.715Z,2.20
2023-02-19T04:58:06.158Z,2.10
2023-02-19T05:00:34.877Z,1.87
2023-02-19T05:03:03.345Z,1.90
2023-02-19T05:05:31.907Z,1.95
2023-02-19T05:08:00.456Z,1.90
2023-02-19T05:10:30.393Z,2.00
2023-02-19T05:12:58.664Z,1.80
2023-02-19T05:15:27.319Z,1.80
2023-02-19T05:17:55.374Z,1.98
2023-02-19T05:20:24.132Z,1.77
2023-02-19T05:22:52.640Z,1.52
2023-02-19T05:25:21.159Z,1.40
2023-02-19T05:28:11.055Z,1.70
2023-02-19T05:30:39.090Z,1.33
2023-02-19T05:33:07.677Z,1.67
2023-02-19T05:35:35.806Z,1.38
2023-02-19T05:38:06.365Z,1.65
2023-02-19T05:40:34.916Z,1.23
2023-02-19T05:43:04.583Z,1.60
2023-02-19T05:45:33.284Z,1.35
2023-02-19T05:48:01.951Z,1.70
2023-02-19T05:50:30.587Z,1.57
2023-02-19T05:53:01.317Z,1.33
2023-02-19T05:55:29.559Z,1.50
2023-02-19T05:57:58.122Z,1.55
2023-02-19T06:00:28.250Z,1.40
2023-02-19T06:02:56.406Z,1.63
2023-02-19T06:05:24.990Z,1.50
2023-02-19T06:07:53.545Z,1.67
2023-02-19T06:10:21.653Z,1.38
2023-02-19T06:12:53.712Z,1.40
2023-02-19T06:15:21.993Z,1.40
2023-02-19T06:17:51.903Z,1.65
2023-02-19T06:20:20.007Z,1.60
2023-02-19T06:22:48.547Z,1.67
2023-02-19T06:25:17.103Z,1.40
2023-02-19T06:27:45.174Z,1.60
2023-02-19T06:30:14.407Z,1.40
2023-02-19T06:32:42.959Z,1.50
2023-02-19T06:35:12.385Z,1.30
2023-02-19T06:37:40.916Z,1.40
2023-02-19T06:40:10.026Z,1.60
2023-02-19T06:42:40.178Z,1.40
2023-02-19T06:45:09.023Z,1.30
2023-02-19T06:47:37.564Z,1.27
2023-02-19T06:50:06.023Z,1.20
2023-02-19T06:52:35.950Z,1.23
2023-02-19T06:55:04.566Z,1.55
2023-02-19T06:57:32.759Z,1.40
2023-02-19T07:00:01.454Z,1.08
2023-02-19T07:02:29.495Z,1.15
2023-02-19T07:04:57.545Z,1.20
2023-02-19T07:07:26.098Z,1.05
2023-02-19T07:09:55.538Z,0.97
2023-02-19T07:12:24.127Z,1.20
2023-02-19T07:14:52.673Z,1.30
2023-02-19T07:17:21.202Z,1.17
2023-02-19T07:19:49.738Z,0.87
2023-02-19T07:22:18.310Z,1.10
2023-02-19T07:24:47.881Z,1.40
2023-02-19T07:27:17.962Z,1.23
2023-02-19T07:29:46.015Z,1.20
2023-02-19T07:32:14.555Z,1.10
2023-02-19T07:34:43.097Z,1.10
2023-02-19T07:37:11.678Z,1.10
2023-02-19T07:39:40.231Z,1.30
2023-02-19T07:42:08.293Z,1.20
2023-02-19T07:44:38.227Z,1.30
2023-02-19T07:47:06.313Z,1.50
2023-02-19T07:49:35.589Z,1.17
2023-02-19T07:52:03.665Z,1.38
2023-02-19T07:54:32.165Z,1.40
2023-02-19T07:57:00.722Z,1.00
2023-02-19T07:59:28.779Z,1.30
2023-02-19T08:02:15.659Z,1.20
2023-02-19T08:04:44.174Z,1.50
2023-02-19T08:07:12.222Z,1.20
2023-02-19T08:09:40.777Z,1.25
2023-02-19T08:12:29.523Z,1.35
2023-02-19T08:14:58.409Z,1.23
2023-02-19T08:17:27.942Z,1.30
2023-02-19T08:19:56.540Z,1.08
2023-02-19T08:22:24.647Z,1.00
2023-02-19T08:24:53.205Z,0.90
2023-02-19T08:27:21.257Z,1.10
2023-02-19T08:29:49.812Z,0.77
2023-02-19T08:32:17.903Z,0.50
2023-02-19T08:34:47.816Z,0.80
2023-02-19T08:37:15.940Z,0.70
2023-02-19T08:39:44.472Z,1.05
2023-02-19T08:42:12.573Z,0.70
2023-02-19T08:44:41.222Z,0.70
2023-02-19T08:47:09.318Z,0.77
2023-02-19T08:49:37.393Z,0.60
2023-02-19T08:52:06.940Z,0.80
2023-02-19T08:54:36.809Z,0.90
2023-02-19T08:57:05.997Z,1.25
2023-02-19T08:59:34.242Z,0.95
2023-02-19T09:02:02.865Z,1.13
2023-02-19T09:04:31.215Z,1.20
2023-02-19T09:06:59.333Z,1.02
2023-02-19T09:09:28.761Z,1.10
2023-02-19T09:11:56.908Z,1.33
2023-02-19T09:14:25.096Z,1.13
2023-02-19T09:16:53.181Z,1.50
2023-02-19T09:19:21.739Z,1.15
2023-02-19T09:21:50.269Z,1.33
2023-02-19T09:24:18.396Z,1.23
2023-02-19T09:26:50.841Z,1.75
2023-02-19T09:29:20.676Z,1.30
2023-02-19T09:31:48.956Z,1.50
2023-02-19T09:34:17.168Z,1.58
2023-02-19T09:36:45.723Z,1.50
2023-02-19T09:39:13.804Z,1.77
2023-02-19T09:41:46.579Z,1.65
2023-02-19T09:44:25.249Z,1.80
2023-02-19T09:46:54.749Z,1.80
2023-02-19T09:49:29.785Z,1.38
2023-02-19T09:52:02.428Z,1.60
2023-02-19T09:54:33.028Z,1.50
2023-02-19T09:57:03.328Z,1.42
2023-02-19T09:59:42.954Z,1.88
2023-02-19T10:02:16.843Z,1.60
2023-02-19T10:04:46.592Z,1.50
2023-02-19T10:07:16.227Z,1.27
2023-02-19T10:09:47.620Z,1.35
2023-02-19T10:12:19.324Z,1.70
2023-02-19T10:14:50.860Z,1.70
2023-02-19T10:17:24.583Z,1.40
2023-02-19T10:19:53.038Z,1.38
2023-02-19T10:22:21.897Z,1.67
2023-02-19T10:24:54.103Z,1.30
2023-02-19T10:27:22.210Z,1.30
2023-02-19T10:29:52.153Z,1.70
2023-02-19T10:32:24.102Z,1.88
2023-02-19T10:35:10.785Z,1.60
2023-02-19T10:37:44.327Z,1.75
2023-02-19T10:40:19.315Z,1.70
2023-02-19T10:42:49.817Z,1.70
2023-02-19T10:45:23.318Z,1.40
2023-02-19T10:47:52.413Z,1.48
2023-02-19T10:50:28.948Z,1.33
2023-02-19T10:52:59.975Z,1.85
2023-02-19T10:55:35.542Z,1.88
2023-02-19T10:58:25.036Z,1.80
2023-02-19T11:01:12.894Z,1.50
2023-02-19T11:03:41.086Z,1.63
2023-02-19T11:06:13.163Z,1.48
2023-02-19T11:08:54.309Z,1.42
2023-02-19T11:11:37.364Z,1.60
2023-02-19T11:14:15.607Z,1.50
2023-02-19T11:16:48.666Z,1.52
2023-02-19T11:19:30.957Z,1.58
2023-02-19T11:22:00.872Z,1.33
2023-02-19T11:24:35.721Z,1.92
2023-02-19T11:27:06.393Z,1.90
2023-02-19T11:29:36.204Z,1.92
2023-02-19T11:32:26.536Z,1.92
2023-02-19T11:35:18.110Z,1.77
2023-02-19T11:37:57.950Z,2.00
2023-02-19T11:40:39.252Z,2.10
2023-02-19T11:43:21.370Z,1.70
2023-02-19T11:45:58.221Z,1.65
2023-02-19T11:48:47.279Z,1.60
2023-02-19T11:51:32.524Z,1.70
2023-02-19T11:54:12.330Z,1.67
2023-02-19T11:56:44.652Z,1.90
2023-02-19T11:59:22.899Z,2.10
2023-02-19T12:02:20.343Z,1.90
2023-02-19T12:05:23.465Z,1.85
2023-02-19T12:08:26.355Z,1.90
2023-02-19T12:11:07.205Z,1.70
2023-02-19T12:13:51.430Z,1.98
2023-02-19T12:16:26.489Z,1.90
2023-02-19T12:19:10.683Z,1.73
2023-02-19T12:21:52.413Z,1.63
2023-02-19T12:24:44.474Z,1.80
2023-02-19T12:27:25.348Z,1.90
2023-02-19T12:30:18.204Z,1.83
2023-02-19T12:33:14.331Z,1.67
2023-02-19T12:35:53.969Z,1.83
2023-02-19T12:38:33.009Z,1.70
2023-02-19T12:41:17.240Z,1.98
2023-02-19T12:43:52.370Z,1.73
2023-02-19T12:46:25.413Z,1.90
2023-02-19T12:49:00.616Z,1.73
2023-02-19T12:51:34.185Z,1.90
2023-02-19T12:54:08.592Z,1.70
2023-02-19T12:56:41.705Z,1.70
2023-02-19T12:59:17.700Z,1.77
2023-02-19T13:01:55.102Z,1.73
2023-02-19T13:04:32.096Z,1.80
2023-02-19T13:07:06.731Z,1.80
2023-02-19T13:09:40.226Z,1.90
2023-02-19T13:12:14.205Z,1.60
2023-02-19T13:14:46.784Z,2.05
2023-02-19T13:17:23.615Z,2.13
2023-02-19T13:19:58.483Z,1.65
2023-02-19T13:22:53.535Z,1.52
2023-02-19T13:25:24.889Z,1.80
2023-02-19T13:28:14.134Z,1.70
2023-02-19T13:30:58.899Z,1.45
2023-02-19T13:33:39.252Z,2.10
2023-02-19T13:36:13.769Z,1.88
2023-02-19T13:38:45.251Z,2.00
2023-02-19T13:41:28.371Z,1.90
2023-02-19T13:43:59.490Z,1.55
2023-02-19T13:46:37.528Z,1.73
2023-02-19T13:49:26.155Z,1.60
2023-02-19T13:51:55.223Z,1.80
2023-02-19T13:54:29.115Z,1.73
2023-02-19T13:57:29.947Z,1.70
2023-02-19T13:59:59.541Z,1.77
2023-02-19T14:02:37.239Z,2.03
2023-02-19T14:05:07.934Z,1.60
2023-02-19T14:07:50.734Z,1.80
2023-02-19T14:10:52.309Z,1.75
2023-02-19T14:13:55.004Z,1.88
2023-02-19T14:16:51.424Z,1.77
2023-02-19T14:19:58.773Z,1.90
2023-02-19T14:23:02.220Z,2.03
2023-02-19T14:25:38.693Z,1.90
2023-02-19T14:28:15.646Z,1.88
2023-02-19T14:30:50.394Z,1.52
2023-02-19T14:33:23.243Z,1.42
2023-02-19T14:35:55.608Z,1.88
2023-02-19T14:38:28.559Z,1.55
2023-02-19T14:40:57.250Z,1.42
2023-02-19T14:43:26.897Z,1.80
2023-02-19T14:45:59.155Z,1.58
2023-02-19T14:48:36.111Z,1.67
2023-02-19T14:51:08.373Z,1.95
2023-02-19T14:53:41.260Z,1.70
2023-02-19T14:56:20.983Z,1.90
2023-02-19T14:59:08.257Z,1.48
2023-02-19T15:01:36.706Z,1.52
2023-02-19T15:04:07.632Z,1.30
2023-02-19T15:06:37.352Z,1.70
2023-02-19T15:09:08.053Z,1.35
2023-02-19T15:11:36.964Z,1.67
2023-02-19T15:14:08.744Z,1.45
2023-02-19T15:16:37.909Z,1.70
2023-02-19T15:19:11.213Z,2.10
2023-02-19T15:21:44.264Z,2.15
2023-02-19T15:24:13.363Z,1.98
2023-02-19T15:26:44.853Z,1.65
2023-02-19T15:29:15.492Z,1.67
2023-02-19T15:31:47.424Z,1.40
2023-02-19T15:34:23.262Z,1.40
2023-02-19T15:36:53.678Z,1.55
2023-02-19T15:39:25.387Z,1.58
2023-02-19T15:41:59.925Z,1.80
2023-02-19T15:44:38.010Z,1.70
2023-02-19T15:47:14.613Z,1.52
2023-02-19T15:49:50.964Z,1.90
2023-02-19T15:52:32.750Z,1.90
2023-02-19T15:55:08.786Z,1.85
2023-02-19T15:57:42.497Z,1.50
2023-02-19T16:00:19.091Z,2.15
2023-02-19T16:02:48.118Z,1.50
2023-02-19T16:05:26.190Z,1.40
2023-02-19T16:08:09.782Z,1.58
2023-02-19T16:10:38.192Z,1.52
2023-02-19T16:13:09.001Z,1.88
2023-02-19T16:15:37.305Z,1.83
2023-02-19T16:18:10.067Z,1.50
2023-02-19T16:20:42.099Z,1.70
2023-02-19T16:23:15.193Z,1.90
2023-02-19T16:25:46.967Z,1.98
2023-02-19T16:28:23.433Z,1.80
2023-02-19T16:30:58.454Z,2.10
2023-02-19T16:33:36.294Z,1.67
2023-02-19T16:36:42.339Z,1.67
2023-02-19T16:39:24.256Z,1.60
2023-02-19T16:42:15.080Z,2.20
2023-02-19T16:44:45.107Z,1.80
2023-02-19T16:47:42.084Z,2.00
2023-02-19T16:50:15.813Z,1.80
2023-02-19T16:52:56.663Z,1.83
2023-02-19T16:55:26.076Z,2.00
2023-02-19T16:57:54.226Z,2.28
2023-02-19T17:00:25.052Z,2.28
2023-02-19T17:02:55.615Z,1.80
2023-02-19T17:05:27.033Z,1.80
2023-02-19T17:07:56.575Z,1.92
2023-02-19T17:10:27.363Z,2.00
2023-02-19T17:12:56.732Z,2.00
2023-02-19T17:15:25.355Z,2.00
2023-02-19T17:17:53.446Z,2.15
2023-02-19T17:20:27.508Z,2.10
2023-02-19T17:22:57.418Z,2.08
2023-02-19T17:25:25.700Z,2.65
2023-02-19T17:27:54.369Z,2.33
2023-02-19T17:30:28.120Z,2.00
2023-02-19T17:32:56.806Z,2.10
2023-02-19T17:35:25.735Z,3.17
2023-02-19T17:37:53.975Z,2.65
2023-02-19T17:40:32.853Z,2.30
2023-02-19T17:43:01.850Z,2.40
2023-02-19T17:45:31.445Z,2.40
2023-02-19T17:47:59.942Z,2.25
2023-02-19T17:50:30.859Z,2.05
2023-02-19T17:52:59.568Z,2.05
2023-02-19T17:55:29.193Z,2.08
2023-02-19T17:57:57.548Z,1.77
2023-02-19T18:00:28.170Z,2.47
2023-02-19T18:02:56.928Z,2.38
2023-02-19T18:05:26.182Z,2.15
2023-02-19T18:07:54.303Z,2.63
2023-02-19T18:10:24.831Z,2.38
2023-02-19T18:12:54.326Z,2.45
2023-02-19T18:15:24.139Z,2.28
2023-02-19T18:17:52.381Z,2.30
2023-02-19T18:20:22.319Z,2.22
2023-02-19T18:22:51.837Z,2.42
2023-02-19T18:25:21.371Z,1.73
2023-02-19T18:27:50.133Z,1.70
2023-02-19T18:30:23.318Z,1.55
2023-02-19T18:32:52.199Z,1.75
2023-02-19T18:35:22.777Z,1.55
2023-02-19T18:37:52.768Z,1.60
2023-02-19T18:40:21.543Z,1.55
2023-02-19T18:42:50.174Z,1.67
2023-02-19T18:45:20.064Z,1.60
2023-02-19T18:47:49.693Z,1.65
2023-02-19T18:50:20.482Z,1.58
2023-02-19T18:52:49.392Z,1.58
2023-02-19T18:55:17.691Z,1.73
2023-02-19T18:57:46.818Z,1.52
2023-02-19T19:00:23.594Z,1.73
2023-02-19T19:02:52.107Z,1.60
2023-02-19T19:05:23.228Z,1.70
2023-02-19T19:07:52.482Z,1.50
2023-02-19T19:10:21.702Z,1.45
2023-02-19T19:12:49.859Z,1.70
2023-02-19T19:15:21.110Z,1.33
2023-02-19T19:17:50.012Z,1.75
2023-02-19T19:20:20.367Z,1.50
2023-02-19T19:22:50.584Z,1.60
2023-02-19T19:25:18.960Z,1.80
2023-02-19T19:27:47.877Z,1.70
2023-02-19T19:30:16.306Z,1.63
2023-02-19T19:32:45.820Z,1.67
2023-02-19T19:35:14.421Z,1.70
2023-02-19T19:37:42.598Z,2.15
2023-02-19T19:40:12.324Z,2.25
2023-02-19T19:42:40.854Z,1.60
2023-02-19T19:45:12.266Z,1.50
2023-02-19T19:47:40.383Z,1.55
2023-02-19T19:50:12.625Z,1.75
2023-02-19T19:52:41.276Z,1.50
2023-02-19T19:55:09.962Z,1.50
2023-02-19T19:57:40.606Z,1.60
2023-02-19T20:00:09.831Z,1.20
2023-02-19T20:02:38.500Z,1.30
2023-02-19T20:05:07.780Z,1.40
2023-02-19T20:07:37.821Z,1.45
2023-02-19T20:10:07.279Z,1.40
2023-02-19T20:12:35.954Z,1.30
2023-02-19T20:15:04.945Z,1.13
2023-02-19T20:17:33.159Z,1.67
2023-02-19T20:20:01.846Z,1.40
2023-02-19T20:22:29.989Z,1.40
2023-02-19T20:25:00.014Z,1.20
2023-02-19T20:27:28.098Z,1.00
2023-02-19T20:29:56.195Z,1.30
2023-02-19T20:32:24.882Z,1.30
2023-02-19T20:34:53.047Z,1.30
2023-02-19T20:37:21.706Z,1.38
2023-02-19T20:39:49.848Z,1.50
2023-02-19T20:42:19.958Z,1.17
2023-02-19T20:44:48.139Z,1.35
2023-02-19T20:47:16.306Z,1.10
2023-02-19T20:49:47.091Z,1.17
2023-02-19T20:52:17.100Z,1.33
2023-02-19T20:54:45.264Z,1.48
2023-02-19T20:57:15.780Z,1.80
2023-02-19T20:59:45.795Z,1.60
2023-02-19T21:02:18.543Z,1.58
2023-02-19T21:04:48.529Z,1.40
2023-02-19T21:07:16.850Z,1.63
2023-02-19T21:09:45.185Z,1.60
2023-02-19T21:12:13.343Z,1.27
2023-02-19T21:14:42.228Z,1.48
2023-02-19T21:17:11.801Z,1.90
2023-02-19T21:19:40.056Z,1.60
2023-02-19T21:22:08.753Z,1.40
2023-02-19T21:24:37.686Z,1.58
2023-02-19T21:27:06.306Z,1.77
2023-02-19T21:29:34.423Z,1.60
2023-02-19T21:32:02.681Z,1.75
2023-02-19T21:34:32.676Z,1.50
2023-02-19T21:37:01.404Z,1.90
2023-02-19T21:39:31.341Z,1.98
2023-02-19T21:42:00.292Z,2.30
2023-02-19T21:44:31.467Z,2.13
2023-02-19T21:47:00.026Z,2.38
2023-02-19T21:49:28.918Z,2.08
2023-02-19T21:51:58.559Z,2.15
2023-02-19T21:54:26.904Z,1.92
2023-02-19T21:56:55.867Z,1.90
2023-02-19T21:59:24.596Z,2.00
2023-02-19T22:01:52.707Z,2.07
2023-02-19T22:04:22.653Z,2.20
2023-02-19T22:06:50.830Z,2.10
2023-02-19T22:09:20.317Z,2.72
2023-02-19T22:11:48.904Z,2.03
2023-02-19T22:14:17.004Z,2.20
2023-02-19T22:16:45.620Z,2.63
2023-02-19T22:19:14.304Z,2.58
2023-02-19T22:21:45.359Z,2.70
2023-02-19T22:24:17.803Z,2.70
2023-02-19T22:26:48.007Z,2.60
2023-02-19T22:29:17.497Z,2.92
2023-02-19T22:31:46.362Z,3.17
2023-02-19T22:34:15.594Z,2.50
2023-02-19T22:36:44.359Z,3.00
2023-02-19T22:39:20.064Z,2.60
2023-02-19T22:41:50.086Z,2.93
2023-02-19T22:44:19.153Z,3.33
2023-02-19T22:46:49.867Z,2.60
2023-02-19T22:49:18.978Z,3.10
2023-02-19T22:51:53.591Z,2.85
2023-02-19T22:54:26.755Z,3.17
2023-02-19T22:56:57.049Z,2.75
2023-02-19T22:59:25.174Z,3.35
2023-02-19T23:01:54.649Z,3.28
2023-02-19T23:04:26.058Z,3.17
2023-02-19T23:06:54.413Z,3.72
2023-02-19T23:09:25.522Z,3.70
2023-02-19T23:12:01.813Z,4.03
2023-02-19T23:14:29.945Z,3.65
2023-02-19T23:16:58.155Z,3.70
2023-02-19T23:19:26.756Z,3.30
2023-02-19T23:21:55.168Z,3.30
2023-02-19T23:24:23.785Z,3.15
2023-02-19T23:26:53.325Z,3.75
2023-02-19T23:29:25.563Z,3.33
2023-02-19T23:31:54.024Z,3.93
2023-02-19T23:34:22.775Z,3.80
2023-02-19T23:36:52.011Z,3.85
2023-02-19T23:39:22.488Z,3.65
2023-02-19T23:41:52.805Z,4.20
2023-02-19T23:44:23.343Z,4.15
2023-02-19T23:46:52.452Z,3.70
2023-02-19T23:49:20.986Z,4.47
2023-02-19T23:51:49.779Z,3.88
2023-02-19T23:54:17.969Z,4.10
2023-02-19T23:56:46.102Z,4.23
2023-02-19T23:59:14.846Z,4.03
